Shipley, Arizona
Current Conditions -  °F | °C
As of 3:51 AM on Wednesday 26 Nov 2014 (Local Time) from KIGM Reporting Station
Clear Clear  
Wind Chill: 34°   Ceiling: Unl
Heat Index: 40°   Visibility: 10mi
Dew Point:   Wind: 8mph
Humidity: 27%   Direction: 80°E
Pressure: 30.37"   Gusts: NA
Location:  35.5603°N, 113.544°W
Report Text: KIGM 261051Z AUTO 08007KT 10SM CLR 04/M13 A3037 RMK AO2 SLP249 T00441133
Loading
Personal Weather Stations






























Interactive Weather Map New forecast layout! Learn more

10-Day Weather Forecast

Advertisements
Track Severe Weather on mobile